createdAt,value
2022-11-28T00:01:39.320Z,7.80
2022-11-28T00:04:08.480Z,7.90
2022-11-28T00:06:38.740Z,7.80
2022-11-28T00:09:07.341Z,7.80
2022-11-28T00:11:35.781Z,7.80
2022-11-28T00:14:03.874Z,7.80
2022-11-28T00:16:33.561Z,7.80
2022-11-28T00:19:03.208Z,7.80
2022-11-28T00:21:31.387Z,7.90
2022-11-28T00:24:00.734Z,7.80
2022-11-28T00:26:30.628Z,7.90
2022-11-28T00:28:59.454Z,7.80
2022-11-28T00:31:29.590Z,7.80
2022-11-28T00:33:59.007Z,7.90
2022-11-28T00:36:27.195Z,7.90
2022-11-28T00:38:55.322Z,7.90
2022-11-28T00:41:25.663Z,7.80
2022-11-28T00:43:53.915Z,7.80
2022-11-28T00:46:23.252Z,7.80
2022-11-28T00:48:51.883Z,7.80
2022-11-28T00:51:23.408Z,7.80
2022-11-28T00:53:53.055Z,7.70
2022-11-28T00:56:23.594Z,7.80
2022-11-28T00:58:52.074Z,7.80
2022-11-28T01:01:22.629Z,7.80
2022-11-28T01:03:52.763Z,7.80
2022-11-28T01:06:26.919Z,7.80
2022-11-28T01:08:55.258Z,7.80
2022-11-28T01:11:24.164Z,7.70
2022-11-28T01:13:54.645Z,7.70
2022-11-28T01:16:23.120Z,7.70
2022-11-28T01:18:51.396Z,7.70
2022-11-28T01:21:19.923Z,7.70
2022-11-28T01:23:49.325Z,7.70
2022-11-28T01:26:19.200Z,7.70
2022-11-28T01:28:47.793Z,7.70
2022-11-28T01:31:18.248Z,7.70
2022-11-28T01:33:46.395Z,7.70
2022-11-28T01:36:15.995Z,7.70
2022-11-28T01:38:44.351Z,7.70
2022-11-28T01:41:15.146Z,7.70
2022-11-28T01:44:03.511Z,7.70
2022-11-28T01:46:32.707Z,7.70
2022-11-28T01:49:04.751Z,7.70
2022-11-28T01:51:33.536Z,7.70
2022-11-28T01:54:02.270Z,7.70
2022-11-28T01:56:39.260Z,7.70
2022-11-28T01:59:12.413Z,7.70
2022-11-28T02:01:40.874Z,7.70
2022-11-28T02:04:10.084Z,7.70
2022-11-28T02:06:38.047Z,7.70
2022-11-28T02:09:10.678Z,7.70
2022-11-28T02:12:07.711Z,7.70
2022-11-28T02:14:53.169Z,7.70
2022-11-28T02:17:33.567Z,7.70
2022-11-28T02:20:30.638Z,7.70
2022-11-28T02:23:09.613Z,7.70
2022-11-28T02:26:09.700Z,7.70
2022-11-28T02:29:00.194Z,7.70
2022-11-28T02:31:55.814Z,7.70
2022-11-28T02:34:31.876Z,7.70
2022-11-28T02:37:06.568Z,7.70
2022-11-28T02:39:43.757Z,7.70
2022-11-28T02:42:18.504Z,7.80
2022-11-28T02:44:53.744Z,7.80
2022-11-28T02:47:27.127Z,7.80
2022-11-28T02:50:03.194Z,7.80
2022-11-28T02:52:35.653Z,7.80
2022-11-28T02:55:05.260Z,7.70
2022-11-28T02:57:38.256Z,7.70
2022-11-28T03:00:25.799Z,7.70
2022-11-28T03:03:12.908Z,7.70
2022-11-28T03:05:46.898Z,7.70
2022-11-28T03:08:35.321Z,7.70
2022-11-28T03:11:08.575Z,7.70
2022-11-28T03:13:40.855Z,7.70
2022-11-28T03:16:21.665Z,7.70
2022-11-28T03:19:00.488Z,7.70
2022-11-28T03:21:35.724Z,7.70
2022-11-28T03:24:10.861Z,7.70
2022-11-28T03:26:47.087Z,7.60
2022-11-28T03:29:22.581Z,7.60
2022-11-28T03:31:55.791Z,7.70
2022-11-28T03:34:31.639Z,7.70
2022-11-28T03:37:03.674Z,7.70
2022-11-28T03:39:36.750Z,7.70
2022-11-28T03:42:08.980Z,7.70
2022-11-28T03:44:41.102Z,7.70
2022-11-28T03:47:10.060Z,7.70
2022-11-28T03:49:41.948Z,7.70
2022-11-28T03:52:17.215Z,7.70
2022-11-28T03:54:51.767Z,7.70
2022-11-28T03:57:25.770Z,7.70
2022-11-28T03:59:55.002Z,7.70
2022-11-28T04:02:30.119Z,7.60
2022-11-28T04:05:04.613Z,7.60
2022-11-28T04:07:39.684Z,7.60
2022-11-28T04:10:13.686Z,7.60
2022-11-28T04:12:54.101Z,7.60
2022-11-28T04:15:29.949Z,7.60
2022-11-28T04:18:01.769Z,7.60
2022-11-28T04:20:37.389Z,7.60
2022-11-28T04:23:09.875Z,7.60
2022-11-28T04:25:41.219Z,7.60
2022-11-28T04:28:14.403Z,7.60
2022-11-28T04:30:44.758Z,7.60
2022-11-28T04:33:15.497Z,7.60
2022-11-28T04:35:49.510Z,7.50
2022-11-28T04:38:18.335Z,7.50
2022-11-28T04:40:52.191Z,7.60
2022-11-28T04:43:25.593Z,7.60
2022-11-28T04:45:58.856Z,7.60
2022-11-28T04:48:31.284Z,7.50
2022-11-28T04:51:14.598Z,7.50
2022-11-28T04:53:49.443Z,7.50
2022-11-28T04:56:22.594Z,7.40
2022-11-28T04:58:51.844Z,7.50
2022-11-28T05:01:25.569Z,7.50
2022-11-28T05:03:55.215Z,7.50
2022-11-28T05:06:27.010Z,7.40
2022-11-28T05:08:55.877Z,7.40
2022-11-28T05:11:24.380Z,7.40
2022-11-28T05:13:52.427Z,7.30
2022-11-28T05:16:20.517Z,7.40
2022-11-28T05:18:48.673Z,7.40
2022-11-28T05:21:16.723Z,7.40
2022-11-28T05:23:46.784Z,7.40
2022-11-28T05:26:17.302Z,7.40
2022-11-28T05:28:45.913Z,7.40
2022-11-28T05:31:15.304Z,7.40
2022-11-28T05:33:43.318Z,7.40
2022-11-28T05:36:13.864Z,7.40
2022-11-28T05:38:42.587Z,7.40
2022-11-28T05:41:19.674Z,7.50
2022-11-28T05:43:47.661Z,7.50
2022-11-28T05:46:16.083Z,7.50
2022-11-28T05:48:44.051Z,7.50
2022-11-28T05:51:12.206Z,7.50
2022-11-28T05:53:40.257Z,7.40
2022-11-28T05:56:09.185Z,7.50
2022-11-28T05:58:38.651Z,7.50
2022-11-28T06:01:18.152Z,7.50
2022-11-28T06:03:46.763Z,7.50
2022-11-28T06:06:16.168Z,7.50
2022-11-28T06:08:45.186Z,7.50
2022-11-28T06:11:15.048Z,7.50
2022-11-28T06:13:44.929Z,7.50
2022-11-28T06:16:15.295Z,7.40
2022-11-28T06:18:43.740Z,7.40
2022-11-28T06:21:13.590Z,7.40
2022-11-28T06:23:41.936Z,7.40
2022-11-28T06:26:12.445Z,7.40
2022-11-28T06:28:41.514Z,7.40
2022-11-28T06:31:12.993Z,7.50
2022-11-28T06:33:41.038Z,7.50
2022-11-28T06:36:10.371Z,7.50
2022-11-28T06:38:38.791Z,7.50
2022-11-28T06:41:09.239Z,7.50
2022-11-28T06:43:37.386Z,7.40
2022-11-28T06:46:06.070Z,7.40
2022-11-28T06:48:35.522Z,7.40
2022-11-28T06:51:05.017Z,7.40
2022-11-28T06:53:33.139Z,7.40
2022-11-28T06:56:06.709Z,7.40
2022-11-28T06:58:35.222Z,7.40
2022-11-28T07:01:15.687Z,7.40
2022-11-28T07:03:45.597Z,7.40
2022-11-28T07:06:14.728Z,7.50
2022-11-28T07:08:43.309Z,7.40
2022-11-28T07:11:13.710Z,7.40
2022-11-28T07:13:42.923Z,7.40
2022-11-28T07:16:15.993Z,7.50
2022-11-28T07:18:46.233Z,7.40
2022-11-28T07:21:15.229Z,7.40
2022-11-28T07:23:44.460Z,7.40
2022-11-28T07:26:14.625Z,7.40
2022-11-28T07:28:43.392Z,7.40
2022-11-28T07:31:12.952Z,7.40
2022-11-28T07:33:42.263Z,7.50
2022-11-28T07:36:15.351Z,7.40
2022-11-28T07:38:43.400Z,7.50
2022-11-28T07:41:13.058Z,7.50
2022-11-28T07:43:42.838Z,7.50
2022-11-28T07:46:13.591Z,7.50
2022-11-28T07:48:41.647Z,7.50
2022-11-28T07:51:13.394Z,7.50
2022-11-28T07:53:41.665Z,7.50
2022-11-28T07:56:13.930Z,7.60
2022-11-28T07:58:42.855Z,7.60
2022-11-28T08:01:11.969Z,7.60
2022-11-28T08:03:40.090Z,7.60
2022-11-28T08:06:08.702Z,7.60
2022-11-28T08:08:38.404Z,7.60
2022-11-28T08:11:09.434Z,7.60
2022-11-28T08:13:38.706Z,7.60
2022-11-28T08:16:07.943Z,7.60
2022-11-28T08:18:36.575Z,7.60
2022-11-28T08:21:06.920Z,7.60
2022-11-28T08:23:35.696Z,7.50
2022-11-28T08:26:08.598Z,7.50
2022-11-28T08:28:36.912Z,7.60
2022-11-28T08:31:10.800Z,7.60
2022-11-28T08:33:39.622Z,7.60
2022-11-28T08:36:08.637Z,7.70
2022-11-28T08:38:37.731Z,7.70
2022-11-28T08:41:09.562Z,7.70
2022-11-28T08:43:38.910Z,7.70
2022-11-28T08:46:08.320Z,7.70
2022-11-28T08:48:36.745Z,7.70
2022-11-28T08:51:05.742Z,7.70
2022-11-28T08:53:34.156Z,7.70
2022-11-28T08:56:02.161Z,7.70
2022-11-28T08:58:31.547Z,7.70
2022-11-28T09:00:59.815Z,7.70
2022-11-28T09:03:28.007Z,7.70
2022-11-28T09:06:02.176Z,7.70
2022-11-28T09:08:30.227Z,7.70
2022-11-28T09:10:58.257Z,7.80
2022-11-28T09:13:26.248Z,7.80
2022-11-28T09:15:55.683Z,7.80
2022-11-28T09:18:23.782Z,7.80
2022-11-28T09:20:51.770Z,7.90
2022-11-28T09:23:19.855Z,7.90
2022-11-28T09:25:47.931Z,7.90
2022-11-28T09:28:16.011Z,7.90
2022-11-28T09:30:44.017Z,7.90
2022-11-28T09:33:13.551Z,7.90
2022-11-28T09:35:42.021Z,7.80
2022-11-28T09:38:10.027Z,7.80
2022-11-28T09:40:41.030Z,7.90
2022-11-28T09:43:16.351Z,7.90
2022-11-28T09:45:45.991Z,7.90
2022-11-28T09:48:26.516Z,7.90
2022-11-28T09:50:58.575Z,7.90
2022-11-28T09:53:32.257Z,7.90
2022-11-28T09:56:06.059Z,8.00
2022-11-28T09:58:40.397Z,8.00
2022-11-28T10:01:17.875Z,8.00
2022-11-28T10:03:53.684Z,8.00
2022-11-28T10:06:27.554Z,8.00
2022-11-28T10:09:16.599Z,8.00
2022-11-28T10:12:02.451Z,8.00
2022-11-28T10:14:55.372Z,8.00
2022-11-28T10:17:32.831Z,8.00
2022-11-28T10:20:05.827Z,8.10
2022-11-28T10:22:40.639Z,8.10
2022-11-28T10:25:16.781Z,8.10
2022-11-28T10:27:45.221Z,8.10
2022-11-28T10:30:21.545Z,8.10
2022-11-28T10:32:58.346Z,8.10
2022-11-28T10:35:35.183Z,8.20
2022-11-28T10:38:03.783Z,8.20
2022-11-28T10:40:40.630Z,8.30
2022-11-28T10:43:27.346Z,8.30
2022-11-28T10:46:04.928Z,8.30
2022-11-28T10:48:42.024Z,8.30
2022-11-28T10:51:30.755Z,8.30
2022-11-28T10:54:10.267Z,8.40
2022-11-28T10:56:48.317Z,8.40
2022-11-28T10:59:28.271Z,8.40
2022-11-28T11:01:57.908Z,8.40
2022-11-28T11:04:28.191Z,8.40
2022-11-28T11:07:16.128Z,8.50
2022-11-28T11:09:46.687Z,8.40
2022-11-28T11:12:21.425Z,8.40
2022-11-28T11:14:49.530Z,8.40
2022-11-28T11:17:31.349Z,8.40
2022-11-28T11:20:03.607Z,8.40
2022-11-28T11:22:33.127Z,8.30
2022-11-28T11:25:08.003Z,8.40
2022-11-28T11:27:37.865Z,8.40
2022-11-28T11:30:18.862Z,8.40
2022-11-28T11:32:51.614Z,8.40
2022-11-28T11:35:22.873Z,8.40
2022-11-28T11:37:53.397Z,8.30
2022-11-28T11:40:28.981Z,8.40
2022-11-28T11:42:59.131Z,8.40
2022-11-28T11:45:31.142Z,8.40
2022-11-28T11:47:59.356Z,8.30
2022-11-28T11:50:29.811Z,8.40
2022-11-28T11:53:08.042Z,8.40
2022-11-28T11:55:44.329Z,8.40
2022-11-28T11:58:17.162Z,8.40
2022-11-28T12:00:46.171Z,8.40
2022-11-28T12:03:24.299Z,8.50
2022-11-28T12:08:50.436Z,8.50
2022-11-28T12:11:22.962Z,8.60
2022-11-28T12:13:51.941Z,8.60
2022-11-28T12:16:37.480Z,8.60
2022-11-28T12:19:14.564Z,8.60
2022-11-28T12:21:52.873Z,8.60
2022-11-28T12:24:29.887Z,8.50
2022-11-28T12:27:06.306Z,8.50
2022-11-28T12:29:44.890Z,8.50
2022-11-28T12:32:29.485Z,8.50
2022-11-28T12:35:14.011Z,8.50
2022-11-28T12:40:56.911Z,8.60
2022-11-28T12:43:39.088Z,8.60
2022-11-28T12:46:16.262Z,8.70
2022-11-28T12:48:59.975Z,8.60
2022-11-28T12:51:38.219Z,8.70
2022-11-28T12:54:31.970Z,8.70
2022-11-28T12:57:08.653Z,8.70
2022-11-28T12:59:42.628Z,8.70
2022-11-28T13:02:23.720Z,8.70
2022-11-28T13:05:13.002Z,8.70
2022-11-28T13:07:55.378Z,8.70
2022-11-28T13:10:28.880Z,8.70
2022-11-28T13:13:03.256Z,8.70
2022-11-28T13:15:44.769Z,8.70
2022-11-28T13:18:25.070Z,8.70
2022-11-28T13:20:57.665Z,8.80
2022-11-28T13:23:30.364Z,8.80
2022-11-28T13:26:05.148Z,8.80
2022-11-28T13:28:42.139Z,8.90
2022-11-28T13:31:22.646Z,8.90
2022-11-28T13:33:52.630Z,8.90
2022-11-28T13:39:23.803Z,8.90
2022-11-28T13:42:21.838Z,8.90
2022-11-28T13:44:58.927Z,8.90
2022-11-28T13:47:34.982Z,8.90
2022-11-28T13:50:32.876Z,8.80
2022-11-28T13:53:02.856Z,8.80
2022-11-28T13:55:39.922Z,8.80
2022-11-28T13:58:22.246Z,8.90
2022-11-28T14:01:12.958Z,8.90
2022-11-28T14:03:48.611Z,8.90
2022-11-28T14:06:20.551Z,8.90
2022-11-28T14:08:50.553Z,8.90
2022-11-28T14:11:49.919Z,8.90
2022-11-28T14:15:07.221Z,9.00
2022-11-28T14:18:31.458Z,9.00
2022-11-28T14:21:05.568Z,9.00
2022-11-28T14:23:43.258Z,8.90
2022-11-28T14:26:27.801Z,8.90
2022-11-28T14:28:57.020Z,8.90
2022-11-28T14:31:30.483Z,9.00
2022-11-28T14:34:02.348Z,9.00
2022-11-28T14:36:33.944Z,9.00
2022-11-28T14:39:05.755Z,9.00
2022-11-28T14:42:58.724Z,9.00
2022-11-28T14:45:42.951Z,9.00
2022-11-28T14:48:20.826Z,9.00
2022-11-28T14:50:59.397Z,9.00
2022-11-28T14:53:47.937Z,9.10
2022-11-28T14:56:29.654Z,9.10
2022-11-28T14:59:01.965Z,9.20
2022-11-28T15:01:56.010Z,9.20
2022-11-28T15:04:48.367Z,9.10
2022-11-28T15:07:28.084Z,9.10
2022-11-28T15:10:07.682Z,9.10
2022-11-28T15:12:45.328Z,9.10
2022-11-28T15:15:16.970Z,9.10
2022-11-28T15:17:48.520Z,9.10
2022-11-28T15:20:22.115Z,9.10
2022-11-28T15:22:51.563Z,9.00
2022-11-28T15:25:21.479Z,9.00
2022-11-28T15:27:50.014Z,9.00
2022-11-28T15:30:20.612Z,9.10
2022-11-28T15:32:49.431Z,9.10
2022-11-28T15:35:19.411Z,9.10
2022-11-28T15:37:50.455Z,9.10
2022-11-28T15:40:25.020Z,9.10
2022-11-28T15:42:54.090Z,9.10
2022-11-28T15:45:26.144Z,9.10
2022-11-28T15:47:55.833Z,9.10
2022-11-28T15:50:26.420Z,9.10
2022-11-28T15:52:59.377Z,9.10
2022-11-28T15:55:31.541Z,9.10
2022-11-28T15:58:18.406Z,9.20
2022-11-28T16:00:50.651Z,9.10
2022-11-28T16:03:23.938Z,9.20
2022-11-28T16:05:54.108Z,9.20
2022-11-28T16:08:27.995Z,9.20
2022-11-28T16:10:58.842Z,9.20
2022-11-28T16:13:27.083Z,9.20
2022-11-28T16:15:58.411Z,9.20
2022-11-28T16:18:28.250Z,9.20
2022-11-28T16:20:57.358Z,9.30
2022-11-28T16:23:30.599Z,9.20
2022-11-28T16:26:04.959Z,9.20
2022-11-28T16:28:35.212Z,9.20
2022-11-28T16:31:03.491Z,9.20
2022-11-28T16:33:40.704Z,9.30
2022-11-28T16:36:19.161Z,9.30
2022-11-28T16:38:48.581Z,9.30
2022-11-28T16:41:21.471Z,9.30
2022-11-28T16:43:53.575Z,9.20
2022-11-28T16:46:23.770Z,9.30
2022-11-28T16:48:55.708Z,9.20
2022-11-28T16:51:37.695Z,9.20
2022-11-28T16:54:30.067Z,9.20
2022-11-28T16:57:10.713Z,9.20
2022-11-28T16:59:38.787Z,9.30
2022-11-28T17:02:14.882Z,9.30
2022-11-28T17:04:43.162Z,9.20
2022-11-28T17:07:13.780Z,9.30
2022-11-28T17:09:42.440Z,9.20
2022-11-28T17:12:19.689Z,9.20
2022-11-28T17:14:47.674Z,9.20
2022-11-28T17:17:17.151Z,9.20
2022-11-28T17:19:46.392Z,9.20
2022-11-28T17:22:16.735Z,9.20
2022-11-28T17:24:45.267Z,9.20
2022-11-28T17:27:15.476Z,9.30
2022-11-28T17:29:44.310Z,9.20
2022-11-28T17:32:13.399Z,9.20
2022-11-28T17:34:42.450Z,9.20
2022-11-28T17:37:11.022Z,9.20
2022-11-28T17:39:39.032Z,9.30
2022-11-28T17:42:07.511Z,9.30
2022-11-28T17:44:39.051Z,9.30
2022-11-28T17:47:07.303Z,9.30
2022-11-28T17:49:35.686Z,9.30
2022-11-28T17:52:03.690Z,9.20
2022-11-28T17:54:31.763Z,9.20
2022-11-28T17:56:59.767Z,9.20
2022-11-28T17:59:27.920Z,9.30
2022-11-28T18:01:57.423Z,9.20
2022-11-28T18:04:26.201Z,9.20
2022-11-28T18:06:54.203Z,9.20
2022-11-28T18:09:22.174Z,9.20
2022-11-28T18:11:51.631Z,9.20
2022-11-28T18:14:20.112Z,9.30
2022-11-28T18:16:49.309Z,9.30
2022-11-28T18:19:18.726Z,9.30
2022-11-28T18:21:47.057Z,9.40
2022-11-28T18:24:15.247Z,9.40
2022-11-28T18:26:43.449Z,9.30
2022-11-28T18:29:11.608Z,9.30
2022-11-28T18:31:40.222Z,9.30
2022-11-28T18:34:10.174Z,9.30
2022-11-28T18:36:41.022Z,9.30
2022-11-28T18:39:13.809Z,9.30
2022-11-28T18:41:42.208Z,9.30
2022-11-28T18:44:12.561Z,9.30
2022-11-28T18:46:41.263Z,9.30
2022-11-28T18:49:16.536Z,9.30
2022-11-28T18:51:46.437Z,9.30
2022-11-28T18:54:20.555Z,9.30
2022-11-28T18:56:49.483Z,9.30
2022-11-28T18:59:17.828Z,9.30
2022-11-28T19:01:46.114Z,9.30
2022-11-28T19:04:15.468Z,9.20
2022-11-28T19:06:48.259Z,9.30
2022-11-28T19:09:18.603Z,9.30
2022-11-28T19:11:46.817Z,9.30
2022-11-28T19:14:16.741Z,9.30
2022-11-28T19:16:46.890Z,9.40
2022-11-28T19:19:17.826Z,9.30
2022-11-28T19:21:49.920Z,9.30
2022-11-28T19:24:18.209Z,9.30
2022-11-28T19:26:46.701Z,9.30
2022-11-28T19:29:15.060Z,9.30
2022-11-28T19:31:44.075Z,9.20
2022-11-28T19:34:14.102Z,9.20
2022-11-28T19:36:44.017Z,9.20
2022-11-28T19:39:17.488Z,9.20
2022-11-28T19:41:46.111Z,9.40
2022-11-28T19:44:15.033Z,9.40
2022-11-28T19:46:44.196Z,9.40
2022-11-28T19:49:19.349Z,9.40
2022-11-28T19:51:48.360Z,9.40
2022-11-28T19:54:19.506Z,9.30
2022-11-28T19:56:48.231Z,9.30
2022-11-28T19:59:16.718Z,9.30
2022-11-28T20:01:45.483Z,9.30
2022-11-28T20:04:15.139Z,9.30
2022-11-28T20:06:44.202Z,9.30
2022-11-28T20:09:13.676Z,9.30
2022-11-28T20:11:45.670Z,9.30
2022-11-28T20:14:15.437Z,9.30
2022-11-28T20:16:44.181Z,9.30
2022-11-28T20:19:14.750Z,9.40
2022-11-28T20:21:46.056Z,9.40
2022-11-28T20:24:15.506Z,9.40
2022-11-28T20:26:45.666Z,9.40
2022-11-28T20:29:15.644Z,9.40
2022-11-28T20:31:46.446Z,9.40
2022-11-28T20:34:17.759Z,9.40
2022-11-28T20:36:46.719Z,9.30
2022-11-28T20:39:14.837Z,9.40
2022-11-28T20:41:44.201Z,9.40
2022-11-28T20:44:12.287Z,9.40
2022-11-28T20:46:40.313Z,9.40
2022-11-28T20:49:08.641Z,9.40
2022-11-28T20:51:37.495Z,9.40
2022-11-28T20:54:06.723Z,9.40
2022-11-28T20:57:04.941Z,9.40
2022-11-28T20:59:28.568Z,9.40
2022-11-28T21:01:56.690Z,9.40
2022-11-28T21:04:24.868Z,9.40
2022-11-28T21:06:52.940Z,9.40
2022-11-28T21:09:20.964Z,9.40
2022-11-28T21:11:57.608Z,9.50
2022-11-28T21:14:28.146Z,9.50
2022-11-28T21:16:56.797Z,9.40
2022-11-28T21:19:25.288Z,9.40
2022-11-28T21:21:53.401Z,9.40
2022-11-28T21:24:21.479Z,9.40
2022-11-28T21:26:53.411Z,9.30
2022-11-28T21:29:23.151Z,9.30
2022-11-28T21:31:52.717Z,9.30
2022-11-28T21:34:22.338Z,9.30
2022-11-28T21:36:50.478Z,9.30
2022-11-28T21:39:19.923Z,9.30
2022-11-28T21:41:48.840Z,9.30
2022-11-28T21:44:16.946Z,9.30
2022-11-28T21:46:44.951Z,9.30
2022-11-28T21:49:15.435Z,9.30
2022-11-28T21:51:43.551Z,9.30
2022-11-28T21:54:12.838Z,9.40
2022-11-28T21:56:41.138Z,9.40
2022-11-28T21:59:09.668Z,9.30
2022-11-28T22:01:37.755Z,9.40
2022-11-28T22:04:06.447Z,9.30
2022-11-28T22:06:35.871Z,9.40
2022-11-28T22:09:08.980Z,9.40
2022-11-28T22:11:39.080Z,9.40
2022-11-28T22:14:07.538Z,9.40
2022-11-28T22:16:35.596Z,9.50
2022-11-28T22:19:04.189Z,9.50
2022-11-28T22:24:22.839Z,9.50
2022-11-28T22:26:51.255Z,9.50
2022-11-28T22:29:20.212Z,9.50
2022-11-28T22:31:49.564Z,9.40
2022-11-28T22:34:18.671Z,9.40
2022-11-28T22:36:46.924Z,9.40
2022-11-28T22:39:15.431Z,9.30
2022-11-28T22:41:44.800Z,9.30
2022-11-28T22:44:14.022Z,9.30
2022-11-28T22:46:41.996Z,9.30
2022-11-28T22:49:11.584Z,9.20
2022-11-28T22:51:40.664Z,9.20
2022-11-28T22:54:12.420Z,9.20
2022-11-28T22:56:41.073Z,9.20
2022-11-28T22:59:14.629Z,9.20
2022-11-28T23:01:43.495Z,9.20
2022-11-28T23:04:12.111Z,9.20
2022-11-28T23:06:40.678Z,9.20
2022-11-28T23:09:11.342Z,9.20
2022-11-28T23:11:40.725Z,9.10
2022-11-28T23:14:09.787Z,9.10
2022-11-28T23:16:41.659Z,9.10
2022-11-28T23:19:13.756Z,9.10
2022-11-28T23:21:44.153Z,9.10
2022-11-28T23:24:15.692Z,9.10
2022-11-28T23:26:45.590Z,9.10
2022-11-28T23:29:18.873Z,9.10
2022-11-28T23:31:49.279Z,9.10
2022-11-28T23:34:17.930Z,9.10
2022-11-28T23:36:47.582Z,9.20
2022-11-28T23:39:17.154Z,9.20
2022-11-28T23:41:45.762Z,9.20
2022-11-28T23:44:15.588Z,9.20
2022-11-28T23:46:44.017Z,9.20
2022-11-28T23:49:13.904Z,9.20
2022-11-28T23:51:42.917Z,9.20
2022-11-28T23:54:12.213Z,9.20
2022-11-28T23:56:41.766Z,9.20
2022-11-28T23:59:11.947Z,9.20
